Time;durP1;ratioP1;P1;durP2;ratioP2;P2;SDS_P1;SDS_P2;PMS_P1;PMS_P2;Temp;Humidity;BMP_temperature;BMP_pressure;BME280_temperature;BME280_humidity;BME280_pressure;Samples;Min_cycle;Max_cycle;Signal;HPM_P1;HPM_P2
2022/03/24 00:01:26;;;;;;;74.23;36.40;;;7.60;99.90;;;;;;5096015;28;20650;-44
2022/03/24 00:03:51;;;;;;;68.43;33.10;;;7.50;99.90;;;;;;5093751;28;20256;-45
2022/03/24 00:06:17;;;;;;;66.17;32.37;;;7.50;99.90;;;;;;5093082;28;20173;-44
2022/03/24 00:08:42;;;;;;;73.93;34.17;;;7.50;99.90;;;;;;5092347;28;20236;-44
2022/03/24 00:11:08;;;;;;;68.03;34.20;;;7.40;99.90;;;;;;5093019;28;20185;-45
2022/03/24 00:13:33;;;;;;;72.47;32.50;;;7.30;99.90;;;;;;5093015;28;20550;-44
2022/03/24 00:15:59;;;;;;;66.90;33.40;;;7.20;99.90;;;;;;5093187;28;20184;-45
2022/03/24 00:18:25;;;;;;;68.40;34.10;;;7.10;99.90;;;;;;5093150;28;20205;-45
2022/03/24 00:20:50;;;;;;;74.70;34.80;;;7.00;99.90;;;;;;5092954;28;20568;-45
2022/03/24 00:23:16;;;;;;;72.50;35.40;;;6.90;99.90;;;;;;5093002;28;20179;-47
2022/03/24 00:25:42;;;;;;;76.53;36.60;;;6.90;99.90;;;;;;5092739;28;20685;-45
2022/03/24 00:28:07;;;;;;;72.43;34.70;;;6.80;99.90;;;;;;5094002;28;20184;-45
2022/03/24 00:30:33;;;;;;;68.70;34.30;;;6.80;99.90;;;;;;5096992;28;20200;-45
2022/03/24 00:32:58;;;;;;;72.47;34.97;;;6.70;99.90;;;;;;5092440;28;20193;-45
2022/03/24 00:35:24;;;;;;;69.87;33.23;;;6.70;99.90;;;;;;5103057;28;20184;-45
2022/03/24 00:37:50;;;;;;;68.37;34.73;;;6.70;99.90;;;;;;5092349;28;20195;-44
2022/03/24 00:40:17;;;;;;;78.47;35.60;;;6.70;99.90;;;;;;5108873;28;20192;-44
2022/03/24 00:42:43;;;;;;;73.63;36.30;;;6.70;99.90;;;;;;5099620;28;20833;-45
2022/03/24 00:45:12;;;;;;;71.73;35.10;;;6.60;99.90;;;;;;5102799;28;20462;-45
2022/03/24 00:47:39;;;;;;;67.50;33.70;;;6.60;99.90;;;;;;5095360;28;20415;-46
2022/03/24 00:50:05;;;;;;;69.63;34.33;;;6.60;99.90;;;;;;5100608;28;20426;-46
2022/03/24 00:52:31;;;;;;;66.07;32.40;;;6.60;99.90;;;;;;5092545;28;20909;-45
2022/03/24 00:54:56;;;;;;;71.40;33.93;;;6.60;99.90;;;;;;5090899;28;20431;-45
2022/03/24 00:57:22;;;;;;;64.77;32.70;;;6.50;99.90;;;;;;5095578;28;20187;-46
2022/03/24 00:59:47;;;;;;;65.50;33.07;;;6.50;99.90;;;;;;5108028;28;20201;-44
2022/03/24 01:02:14;;;;;;;67.47;34.10;;;6.50;99.90;;;;;;5104054;28;20185;-44
2022/03/24 01:04:41;;;;;;;77.97;35.13;;;6.40;99.90;;;;;;5099496;28;20181;-45
2022/03/24 01:07:07;;;;;;;72.03;33.00;;;6.40;99.90;;;;;;5092157;28;20423;-45
2022/03/24 01:09:33;;;;;;;73.40;33.00;;;6.40;99.90;;;;;;5089713;28;20849;-46
2022/03/24 01:11:59;;;;;;;75.03;34.03;;;6.40;99.90;;;;;;5091821;28;20913;-45
2022/03/24 01:14:25;;;;;;;72.73;33.00;;;6.40;99.90;;;;;;5101573;28;20188;-45
2022/03/24 01:16:51;;;;;;;79.43;35.27;;;6.40;99.90;;;;;;5093997;28;20177;-46
2022/03/24 01:19:17;;;;;;;73.63;35.27;;;6.30;99.90;;;;;;5085343;28;20900;-46
2022/03/24 01:21:43;;;;;;;72.53;35.00;;;6.30;99.90;;;;;;5082404;28;20912;-44
2022/03/24 01:24:09;;;;;;;70.40;34.63;;;6.30;99.90;;;;;;5090316;28;20446;-44
2022/03/24 01:26:36;;;;;;;78.23;33.87;;;6.20;99.90;;;;;;5091951;28;20244;-45
2022/03/24 01:29:02;;;;;;;71.50;33.63;;;6.20;99.90;;;;;;5091845;28;20192;-48
2022/03/24 01:31:28;;;;;;;70.23;33.70;;;6.20;99.90;;;;;;5077893;28;21107;-45
2022/03/24 01:33:54;;;;;;;70.77;33.13;;;6.10;99.90;;;;;;5091344;28;20442;-45
2022/03/24 01:36:20;;;;;;;70.40;34.23;;;6.10;99.90;;;;;;5091622;28;20201;-44
2022/03/24 01:38:46;;;;;;;66.43;33.77;;;6.00;99.90;;;;;;5091559;28;20474;-45
2022/03/24 01:41:12;;;;;;;68.00;33.30;;;6.00;99.90;;;;;;5082808;28;20268;-45
2022/03/24 01:43:37;;;;;;;64.80;33.63;;;6.00;99.90;;;;;;5085082;28;20462;-45
2022/03/24 01:46:04;;;;;;;78.97;34.40;;;5.90;99.90;;;;;;5091382;28;20434;-44
2022/03/24 01:48:30;;;;;;;78.83;35.53;;;5.80;99.90;;;;;;5092430;28;20212;-45
2022/03/24 01:50:56;;;;;;;73.43;35.17;;;5.80;99.90;;;;;;5075752;28;20459;-46
2022/03/24 01:53:22;;;;;;;72.30;34.70;;;5.80;99.90;;;;;;5081309;28;20223;-45
2022/03/24 01:55:50;;;;;;;70.43;34.50;;;5.80;99.90;;;;;;5091710;28;20441;-45
2022/03/24 01:58:16;;;;;;;69.87;35.60;;;5.80;99.90;;;;;;5091236;28;20503;-44
2022/03/24 02:00:44;;;;;;;70.90;33.60;;;5.70;99.90;;;;;;5091409;28;20412;-45
2022/03/24 02:03:14;;;;;;;71.30;32.30;;;5.80;99.90;;;;;;5096978;28;20521;-45
2022/03/24 02:05:40;;;;;;;74.23;36.00;;;5.70;99.90;;;;;;5107161;28;20411;-44
2022/03/24 02:08:05;;;;;;;75.97;35.10;;;5.70;99.90;;;;;;5090897;28;20475;-45
2022/03/24 02:10:32;;;;;;;65.13;32.73;;;5.70;99.90;;;;;;5077951;28;20427;-44
2022/03/24 02:12:58;;;;;;;70.67;33.97;;;5.70;99.90;;;;;;5091015;28;20722;-44
2022/03/24 02:15:25;;;;;;;72.77;35.07;;;5.70;99.90;;;;;;5093149;28;20415;-44
2022/03/24 02:17:52;;;;;;;75.70;33.90;;;5.70;99.90;;;;;;5094132;28;20544;-44
2022/03/24 02:20:21;;;;;;;71.90;35.80;;;5.70;99.90;;;;;;5102956;28;20438;-44
2022/03/24 02:22:48;;;;;;;83.00;35.40;;;5.70;99.90;;;;;;5106908;28;20491;-45
2022/03/24 02:25:14;;;;;;;79.27;37.07;;;5.60;99.90;;;;;;5091632;28;20419;-44
2022/03/24 02:27:40;;;;;;;71.77;34.30;;;5.60;99.90;;;;;;5091070;28;20453;-44
2022/03/24 02:30:06;;;;;;;78.37;34.97;;;5.60;99.90;;;;;;5091227;28;20859;-45
2022/03/24 02:32:32;;;;;;;77.17;35.57;;;5.60;99.90;;;;;;5092582;28;20429;-44
2022/03/24 02:34:58;;;;;;;77.83;36.60;;;5.60;99.90;;;;;;5082877;28;20436;-44
2022/03/24 02:37:25;;;;;;;82.50;38.20;;;5.50;99.90;;;;;;5077008;28;20931;-44
2022/03/24 02:39:53;;;;;;;74.67;35.60;;;5.50;99.90;;;;;;5096369;28;20289;-44
2022/03/24 02:42:22;;;;;;;78.27;36.10;;;5.50;99.90;;;;;;5099566;28;20426;-44
2022/03/24 02:45:08;;;;;;;79.70;38.03;;;5.50;99.90;;;;;;5090483;28;21086;-44
2022/03/24 02:47:34;;;;;;;77.57;37.47;;;5.50;99.90;;;;;;5106362;28;20418;-44
2022/03/24 02:50:00;;;;;;;80.40;36.97;;;5.40;99.90;;;;;;5090485;28;20818;-44
2022/03/24 02:52:27;;;;;;;80.73;37.67;;;5.40;99.90;;;;;;5090741;28;20189;-44
2022/03/24 02:54:53;;;;;;;73.03;37.13;;;5.40;99.90;;;;;;5090894;28;20790;-45
2022/03/24 02:57:18;;;;;;;82.70;37.67;;;5.40;99.90;;;;;;5104526;28;20459;-43
2022/03/24 02:59:44;;;;;;;79.90;36.73;;;5.30;99.90;;;;;;5097737;28;20669;-45
2022/03/24 03:02:13;;;;;;;79.47;38.07;;;5.30;99.90;;;;;;5079666;28;20181;-44
2022/03/24 03:04:40;;;;;;;78.50;37.20;;;5.30;99.90;;;;;;5090634;28;20636;-45
2022/03/24 03:07:06;;;;;;;76.73;38.10;;;5.30;99.90;;;;;;5080210;28;20717;-44
2022/03/24 03:09:33;;;;;;;90.03;37.60;;;5.20;99.90;;;;;;5090178;28;20998;-44
2022/03/24 03:12:00;;;;;;;76.33;37.47;;;5.20;99.90;;;;;;5091832;28;20191;-44
2022/03/24 03:14:28;;;;;;;78.80;38.17;;;5.10;99.90;;;;;;5090375;28;20896;-43
2022/03/24 03:16:53;;;;;;;84.60;38.83;;;5.10;99.90;;;;;;5090466;28;20958;-44
2022/03/24 03:19:19;;;;;;;82.43;37.60;;;5.10;99.90;;;;;;5090000;28;20524;-44
2022/03/24 03:21:50;;;;;;;79.47;38.63;;;5.00;99.90;;;;;;5091665;28;20281;-43
2022/03/24 03:24:18;;;;;;;74.60;36.47;;;5.00;99.90;;;;;;5090314;28;20829;-44
2022/03/24 03:26:44;;;;;;;89.20;39.63;;;5.00;99.90;;;;;;5090455;28;20465;-44
2022/03/24 03:29:10;;;;;;;80.10;39.30;;;4.90;99.90;;;;;;5088769;28;20419;-44
2022/03/24 03:31:36;;;;;;;77.07;37.20;;;4.90;99.90;;;;;;5091343;28;20434;-44
2022/03/24 03:34:07;;;;;;;79.17;38.63;;;4.90;99.90;;;;;;5089133;28;20427;-45
2022/03/24 03:36:33;;;;;;;81.33;37.63;;;4.90;99.90;;;;;;5079721;27;20514;-45
2022/03/24 03:38:59;;;;;;;84.23;39.53;;;4.90;99.90;;;;;;5073652;28;20447;-43
2022/03/24 03:41:27;;;;;;;87.73;40.13;;;4.90;99.90;;;;;;5094661;28;20438;-44
2022/03/24 03:43:53;;;;;;;79.23;38.70;;;4.90;99.90;;;;;;5093737;28;20407;-44
2022/03/24 03:46:18;;;;;;;81.30;38.03;;;4.80;99.90;;;;;;5094913;28;20427;-44
2022/03/24 03:48:45;;;;;;;89.50;40.87;;;4.80;99.90;;;;;;5101200;28;20753;-44
2022/03/24 03:51:11;;;;;;;80.20;38.60;;;4.70;99.90;;;;;;5093368;28;20583;-44
2022/03/24 03:53:37;;;;;;;79.10;38.17;;;4.70;99.90;;;;;;5094730;28;20435;-44
2022/03/24 03:56:04;;;;;;;92.47;39.67;;;4.70;99.90;;;;;;5093599;28;20529;-44
2022/03/24 03:58:30;;;;;;;77.73;37.90;;;4.70;99.90;;;;;;5094489;28;20201;-44
2022/03/24 04:00:58;;;;;;;83.20;38.50;;;4.70;99.90;;;;;;5091687;28;20925;-44
2022/03/24 04:03:25;;;;;;;83.30;38.03;;;4.60;99.90;;;;;;5094542;28;20200;-44
2022/03/24 04:05:56;;;;;;;84.97;39.27;;;4.60;99.90;;;;;;5104088;28;20423;-44
2022/03/24 04:08:22;;;;;;;85.57;39.43;;;4.60;99.90;;;;;;5113525;28;20553;-44
2022/03/24 04:10:52;;;;;;;90.30;39.80;;;4.60;99.90;;;;;;5112015;28;20533;-44
2022/03/24 04:13:19;;;;;;;103.23;38.10;;;4.60;99.90;;;;;;5113564;28;20161;-44
2022/03/24 04:15:45;;;;;;;87.07;40.37;;;4.50;99.90;;;;;;5094242;28;20423;-44
2022/03/24 04:18:12;;;;;;;85.50;39.37;;;4.50;99.90;;;;;;5102039;28;20471;-44
2022/03/24 04:20:38;;;;;;;85.23;38.83;;;4.50;99.90;;;;;;5092786;28;20431;-44
2022/03/24 04:23:05;;;;;;;77.77;37.03;;;4.50;99.90;;;;;;5093143;28;20422;-44
2022/03/24 04:25:33;;;;;;;79.33;36.77;;;4.40;99.90;;;;;;5093049;28;20449;-43
2022/03/24 04:27:59;;;;;;;79.17;38.17;;;4.40;99.90;;;;;;5101002;28;20426;-44
2022/03/24 04:30:27;;;;;;;79.97;37.90;;;4.40;99.90;;;;;;5094465;28;20946;-44
2022/03/24 04:32:54;;;;;;;90.53;41.13;;;4.40;99.90;;;;;;5100023;28;20429;-44
2022/03/24 04:35:20;;;;;;;90.67;39.13;;;4.40;99.90;;;;;;5111516;28;20468;-44
2022/03/24 04:37:47;;;;;;;87.73;40.10;;;4.40;99.90;;;;;;5106073;28;20457;-45
2022/03/24 04:40:16;;;;;;;76.67;37.50;;;4.40;99.90;;;;;;5101478;28;20941;-49
2022/03/24 04:42:46;;;;;;;82.70;38.30;;;4.30;99.90;;;;;;5093663;28;20435;-49
2022/03/24 04:45:13;;;;;;;101.67;41.30;;;4.30;99.90;;;;;;5092802;28;21199;-50
2022/03/24 04:47:40;;;;;;;86.00;39.60;;;4.30;99.90;;;;;;5105135;28;20441;-49
2022/03/24 04:50:06;;;;;;;80.97;38.93;;;4.30;99.90;;;;;;5080832;28;20431;-49
2022/03/24 04:52:32;;;;;;;84.87;39.93;;;4.20;99.90;;;;;;5092595;28;20425;-49
2022/03/24 04:54:59;;;;;;;81.07;37.27;;;4.20;99.90;;;;;;5092616;28;20421;-49
2022/03/24 04:57:25;;;;;;;80.70;39.07;;;4.20;99.90;;;;;;5081334;28;20197;-49
2022/03/24 04:59:50;;;;;;;85.10;38.87;;;4.10;99.90;;;;;;5077177;28;20816;-49
2022/03/24 05:02:17;;;;;;;82.07;38.63;;;4.10;99.90;;;;;;5083300;28;20439;-50
2022/03/24 05:04:42;;;;;;;82.87;39.27;;;4.00;99.90;;;;;;5095887;28;20173;-51
2022/03/24 05:07:11;;;;;;;81.30;38.13;;;4.00;99.90;;;;;;5085218;28;20947;-48
2022/03/24 05:09:37;;;;;;;83.97;40.37;;;3.90;99.90;;;;;;5086479;28;20193;-49
2022/03/24 05:12:04;;;;;;;80.20;38.93;;;3.90;99.90;;;;;;5087627;28;20432;-49
2022/03/24 05:14:31;;;;;;;90.07;40.80;;;3.90;99.90;;;;;;5084909;28;21220;-50
2022/03/24 05:16:57;;;;;;;86.13;38.60;;;3.90;99.90;;;;;;5101657;28;20430;-50
2022/03/24 05:19:22;;;;;;;92.97;41.03;;;3.90;99.90;;;;;;5112312;28;20943;-49
2022/03/24 05:21:48;;;;;;;76.40;37.17;;;3.90;99.90;;;;;;5094059;28;20438;-49
2022/03/24 05:24:14;;;;;;;83.23;40.13;;;4.00;99.90;;;;;;5091460;28;20290;-49
2022/03/24 05:26:40;;;;;;;76.57;37.93;;;3.90;99.90;;;;;;5092045;28;20177;-50
2022/03/24 05:29:06;;;;;;;80.73;38.93;;;3.90;99.90;;;;;;5092877;28;20414;-50
2022/03/24 05:31:31;;;;;;;83.93;38.40;;;3.90;99.90;;;;;;5084758;28;20420;-49
2022/03/24 05:33:57;;;;;;;91.40;41.27;;;3.90;99.90;;;;;;5083447;28;20696;-49
2022/03/24 05:36:23;;;;;;;78.57;36.03;;;3.90;99.90;;;;;;5092846;28;20638;-49
2022/03/24 05:38:48;;;;;;;82.17;38.37;;;3.90;99.90;;;;;;5102773;28;20542;-49
2022/03/24 05:41:14;;;;;;;86.97;39.57;;;3.80;99.90;;;;;;5088497;28;20219;-50
2022/03/24 05:44:02;;;;;;;88.90;42.20;;;3.80;99.90;;;;;;5089049;28;20177;-49
2022/03/24 05:46:26;;;;;;;93.10;40.77;;;3.90;99.90;;;;;;5098621;28;20185;-50
2022/03/24 05:48:51;;;;;;;86.23;40.60;;;3.90;99.90;;;;;;5091100;28;20441;-48
2022/03/24 05:51:17;;;;;;;85.20;39.50;;;4.00;99.90;;;;;;5091628;28;20180;-49
2022/03/24 05:53:43;;;;;;;95.97;41.30;;;4.00;99.90;;;;;;5091393;28;20208;-50
2022/03/24 05:56:09;;;;;;;92.00;41.80;;;4.10;99.90;;;;;;5088781;28;20463;-49
2022/03/24 05:58:34;;;;;;;89.57;40.63;;;4.30;99.90;;;;;;5089482;28;20205;-50
2022/03/24 06:01:00;;;;;;;94.43;42.37;;;4.40;99.90;;;;;;5087766;28;20190;-49
2022/03/24 06:03:29;;;;;;;87.50;40.10;;;4.40;99.90;;;;;;5091318;28;20264;-50
2022/03/24 06:05:56;;;;;;;83.27;38.90;;;4.60;99.90;;;;;;5105593;28;20425;-48
2022/03/24 06:08:22;;;;;;;86.40;41.40;;;4.70;99.90;;;;;;5108552;28;20943;-48
2022/03/24 06:10:48;;;;;;;87.03;39.80;;;4.90;99.90;;;;;;5088357;28;20488;-49
2022/03/24 06:13:14;;;;;;;93.20;41.20;;;5.00;99.90;;;;;;5089605;28;20173;-50
2022/03/24 06:15:40;;;;;;;90.50;40.20;;;5.10;99.90;;;;;;5093177;28;20770;-49
2022/03/24 06:18:05;;;;;;;82.20;40.50;;;5.20;99.90;;;;;;5075143;28;20189;-49
2022/03/24 06:20:31;;;;;;;80.93;38.27;;;5.30;99.90;;;;;;5087650;28;20185;-50
2022/03/24 06:22:56;;;;;;;85.67;40.03;;;5.40;99.90;;;;;;5089586;28;20181;-48
2022/03/24 06:25:22;;;;;;;79.87;37.17;;;5.50;99.90;;;;;;5102902;28;20637;-48
2022/03/24 06:27:49;;;;;;;85.30;37.50;;;5.60;99.90;;;;;;5089899;28;20177;-50
2022/03/24 06:30:16;;;;;;;81.17;39.97;;;5.80;99.90;;;;;;5085816;28;20455;-49
2022/03/24 06:32:41;;;;;;;83.43;39.67;;;6.00;99.90;;;;;;5078711;28;20427;-48
2022/03/24 06:35:08;;;;;;;80.53;38.77;;;6.10;99.90;;;;;;5087425;28;20504;-50
2022/03/24 06:37:39;;;;;;;79.30;40.20;;;6.20;99.90;;;;;;5084908;28;20184;-50
2022/03/24 06:40:07;;;;;;;75.07;35.97;;;6.40;99.90;;;;;;5081185;28;20488;-49
2022/03/24 06:42:33;;;;;;;78.90;38.30;;;6.50;99.90;;;;;;5073612;28;20884;-49
2022/03/24 06:44:59;;;;;;;80.47;38.20;;;6.70;99.90;;;;;;5086580;28;20431;-49
2022/03/24 06:47:24;;;;;;;80.83;38.20;;;7.00;99.90;;;;;;5080734;28;20256;-50
2022/03/24 06:49:50;;;;;;;80.13;37.50;;;7.20;99.90;;;;;;5089521;28;20975;-48
2022/03/24 06:52:15;;;;;;;83.03;38.77;;;7.40;99.90;;;;;;5090636;28;20181;-49
2022/03/24 06:54:41;;;;;;;77.40;38.53;;;7.60;99.90;;;;;;5084656;28;20984;-49
2022/03/24 06:57:07;;;;;;;77.20;37.70;;;7.70;99.90;;;;;;5084285;28;20193;-49
2022/03/24 06:59:32;;;;;;;69.83;36.53;;;7.90;99.90;;;;;;5089618;28;20266;-49
2022/03/24 07:01:58;;;;;;;76.43;37.03;;;8.10;99.90;;;;;;5088928;28;20185;-50
2022/03/24 07:04:23;;;;;;;74.40;37.17;;;8.30;99.90;;;;;;5090566;28;20207;-50
2022/03/24 07:06:49;;;;;;;67.20;34.53;;;8.50;99.90;;;;;;5087309;28;20179;-49
2022/03/24 07:09:14;;;;;;;76.43;37.03;;;8.80;99.90;;;;;;5096812;28;20252;-48
2022/03/24 07:11:40;;;;;;;74.57;36.67;;;9.00;99.90;;;;;;5093992;28;20204;-48
2022/03/24 07:14:05;;;;;;;73.07;37.27;;;9.40;99.90;;;;;;5097669;28;20242;-49
2022/03/24 07:16:31;;;;;;;82.83;36.33;;;9.70;99.90;;;;;;5095738;28;20189;-49
2022/03/24 07:18:57;;;;;;;76.23;37.30;;;10.00;99.90;;;;;;5104331;28;20454;-48
2022/03/24 07:21:22;;;;;;;70.23;36.87;;;10.20;99.90;;;;;;5094133;28;20157;-48
2022/03/24 07:23:48;;;;;;;70.37;37.57;;;10.50;99.90;;;;;;5095069;28;20188;-48
